createdAt,value
2018-04-23T00:02:01.294Z,87.26
2018-04-23T00:04:29.435Z,86.57
2018-04-23T00:06:57.555Z,88.60
2018-04-23T00:09:25.700Z,88.58
2018-04-23T00:11:53.829Z,88.39
2018-04-23T00:14:22.029Z,88.57
2018-04-23T00:16:50.428Z,89.70
2018-04-23T00:19:18.572Z,90.01
2018-04-23T00:21:46.685Z,90.64
2018-04-23T00:24:14.847Z,90.27
2018-04-23T00:26:42.977Z,90.26
2018-04-23T00:29:11.108Z,91.17
2018-04-23T00:31:39.289Z,92.37
2018-04-23T00:34:07.431Z,92.74
2018-04-23T00:36:35.562Z,91.82
2018-04-23T00:39:03.720Z,91.00
2018-04-23T00:41:31.843Z,91.35
2018-04-23T00:44:00.001Z,91.42
2018-04-23T00:46:28.146Z,90.98
2018-04-23T00:48:56.277Z,92.24
2018-04-23T00:51:24.424Z,91.74
2018-04-23T00:53:52.582Z,90.90
2018-04-23T00:56:20.738Z,90.98
2018-04-23T00:58:48.865Z,90.67
2018-04-23T01:01:17.004Z,90.41
2018-04-23T01:03:45.149Z,89.67
2018-04-23T01:06:13.297Z,89.15
2018-04-23T01:08:41.434Z,89.05
2018-04-23T01:11:09.594Z,88.88
2018-04-23T01:13:41.052Z,88.08
2018-04-23T01:16:09.197Z,88.58
2018-04-23T01:18:37.339Z,88.47
2018-04-23T01:21:05.460Z,88.12
2018-04-23T01:23:33.635Z,87.71
2018-04-23T01:26:01.759Z,88.22
2018-04-23T01:28:29.894Z,88.53
2018-04-23T01:30:58.028Z,88.38
2018-04-23T01:33:26.197Z,87.91
2018-04-23T01:35:54.323Z,88.02
2018-04-23T01:38:22.462Z,88.18
2018-04-23T01:40:50.667Z,88.48
2018-04-23T01:43:18.785Z,88.03
2018-04-23T01:45:46.931Z,87.89
2018-04-23T01:48:15.066Z,88.79
2018-04-23T01:50:43.227Z,89.15
2018-04-23T01:53:11.370Z,88.60
2018-04-23T01:55:39.518Z,88.41
2018-04-23T01:58:07.670Z,89.34
2018-04-23T02:00:35.824Z,89.48
2018-04-23T02:03:03.936Z,90.13
2018-04-23T02:05:32.096Z,89.49
2018-04-23T02:08:00.625Z,89.78
2018-04-23T02:10:28.777Z,89.26
2018-04-23T02:12:57.297Z,89.40
2018-04-23T02:15:25.450Z,88.82
2018-04-23T02:17:53.576Z,89.54
2018-04-23T02:20:21.711Z,89.36
2018-04-23T02:22:49.884Z,88.22
2018-04-23T02:25:18.034Z,88.46
2018-04-23T02:27:46.152Z,88.37
2018-04-23T02:30:14.325Z,88.61
2018-04-23T02:32:42.477Z,88.58
2018-04-23T02:35:10.615Z,87.67
2018-04-23T02:37:38.762Z,88.25
2018-04-23T02:40:06.912Z,89.08
2018-04-23T02:42:35.043Z,88.90
2018-04-23T02:45:03.220Z,88.57
2018-04-23T02:47:31.349Z,88.37
2018-04-23T02:49:59.497Z,88.56
2018-04-23T02:52:27.642Z,88.13
2018-04-23T02:54:55.793Z,87.48
2018-04-23T02:57:23.950Z,88.38
2018-04-23T02:59:52.109Z,88.81
2018-04-23T03:02:20.257Z,88.63
2018-04-23T03:04:48.395Z,88.15
2018-04-23T03:07:16.551Z,88.78
2018-04-23T03:09:44.686Z,87.83
2018-04-23T03:12:12.838Z,88.31
2018-04-23T03:14:40.997Z,86.04
2018-04-23T03:17:09.130Z,85.98
2018-04-23T03:19:37.298Z,85.63
2018-04-23T03:22:05.448Z,84.75
2018-04-23T03:24:33.591Z,84.80
2018-04-23T03:27:01.839Z,86.12
2018-04-23T03:29:29.968Z,85.00
2018-04-23T03:31:58.116Z,82.88
2018-04-23T03:34:26.271Z,85.07
2018-04-23T03:36:54.402Z,85.26
2018-04-23T03:39:22.547Z,83.77
2018-04-23T03:41:50.678Z,84.22
2018-04-23T03:44:18.903Z,84.16
2018-04-23T03:46:47.061Z,82.68
2018-04-23T03:49:15.182Z,79.77
2018-04-23T03:51:43.342Z,81.48
2018-04-23T03:54:11.482Z,79.67
2018-04-23T03:56:39.632Z,79.03
2018-04-23T03:59:07.809Z,79.03
2018-04-23T04:01:35.939Z,78.36
2018-04-23T04:04:04.071Z,78.07
2018-04-23T04:06:32.220Z,78.12
2018-04-23T04:09:00.408Z,76.09
2018-04-23T04:11:28.544Z,77.00
2018-04-23T04:14:08.602Z,75.62
2018-04-23T04:16:48.560Z,74.67
2018-04-23T04:19:16.708Z,74.04
2018-04-23T04:21:44.838Z,75.26
2018-04-23T04:24:12.975Z,73.93
2018-04-23T04:26:41.115Z,75.15
2018-04-23T04:29:10.089Z,74.88
2018-04-23T04:31:38.212Z,75.45
2018-04-23T04:34:06.385Z,75.78
2018-04-23T04:36:34.518Z,75.01
2018-04-23T04:39:03.218Z,75.10
2018-04-23T04:41:31.378Z,74.03
2018-04-23T04:43:59.546Z,73.75
2018-04-23T04:46:27.732Z,72.87
2018-04-23T04:48:55.897Z,73.82
2018-04-23T04:51:24.053Z,75.25
2018-04-23T04:53:52.178Z,74.31
2018-04-23T04:56:20.326Z,74.58
2018-04-23T04:58:48.462Z,74.69
2018-04-23T05:01:16.602Z,74.37
2018-04-23T05:03:44.786Z,75.60
2018-04-23T05:06:12.917Z,75.38
2018-04-23T05:08:41.052Z,75.63
2018-04-23T05:11:09.255Z,76.83
2018-04-23T05:13:37.376Z,75.53
2018-04-23T05:16:05.512Z,74.74
2018-04-23T05:18:33.669Z,74.60
2018-04-23T05:21:01.842Z,75.29
2018-04-23T05:23:29.970Z,73.47
2018-04-23T05:25:58.124Z,73.41
2018-04-23T05:28:26.261Z,73.93
2018-04-23T05:30:54.378Z,73.66
2018-04-23T05:33:22.524Z,72.14
2018-04-23T05:35:50.667Z,73.18
2018-04-23T05:38:18.803Z,73.47
2018-04-23T05:40:47.122Z,72.79
2018-04-23T05:43:15.254Z,71.79
2018-04-23T05:45:43.373Z,72.48
2018-04-23T05:48:11.536Z,72.28
2018-04-23T05:50:39.694Z,71.04
2018-04-23T05:53:07.817Z,71.00
2018-04-23T05:55:35.951Z,71.41
2018-04-23T05:58:04.091Z,71.56
2018-04-23T06:00:32.244Z,70.60
2018-04-23T06:03:00.414Z,70.88
2018-04-23T06:05:28.541Z,70.44
2018-04-23T06:07:56.652Z,69.99
2018-04-23T06:10:24.825Z,70.75
2018-04-23T06:12:52.941Z,70.31
2018-04-23T06:15:21.082Z,70.84
2018-04-23T06:17:49.233Z,70.46
2018-04-23T06:20:17.373Z,69.50
2018-04-23T06:22:45.502Z,70.14
2018-04-23T06:25:13.652Z,70.42
2018-04-23T06:27:41.809Z,70.11
2018-04-23T06:30:09.927Z,69.43
2018-04-23T06:32:38.383Z,69.37
2018-04-23T06:35:06.518Z,68.25
2018-04-23T06:37:34.648Z,67.53
2018-04-23T06:40:02.821Z,67.23
2018-04-23T06:42:30.943Z,67.40
2018-04-23T06:44:59.100Z,67.81
2018-04-23T06:47:27.251Z,67.75
2018-04-23T06:49:55.375Z,67.49
2018-04-23T06:52:23.525Z,67.78
2018-04-23T06:54:51.690Z,67.83
2018-04-23T06:57:19.854Z,67.92
2018-04-23T06:59:47.983Z,67.65
2018-04-23T07:02:16.339Z,69.02
2018-04-23T07:04:44.491Z,68.46
2018-04-23T07:07:12.620Z,68.61
2018-04-23T07:09:40.771Z,68.00
2018-04-23T07:12:08.908Z,68.56
2018-04-23T07:14:37.028Z,69.78
2018-04-23T07:17:05.391Z,69.64
2018-04-23T07:19:33.546Z,69.41
2018-04-23T07:22:01.660Z,68.53
2018-04-23T07:24:29.810Z,69.06
2018-04-23T07:26:57.931Z,68.46
2018-04-23T07:29:26.074Z,68.01
2018-04-23T07:31:54.234Z,68.19
2018-04-23T07:34:22.388Z,67.88
2018-04-23T07:36:50.518Z,67.93
2018-04-23T07:39:18.670Z,67.17
2018-04-23T07:41:46.815Z,67.07
2018-04-23T07:44:14.937Z,67.74
2018-04-23T07:46:43.099Z,67.12
2018-04-23T07:49:11.228Z,65.61
2018-04-23T07:51:39.352Z,66.74
2018-04-23T07:54:07.490Z,66.67
2018-04-23T07:56:35.653Z,65.35
2018-04-23T07:59:03.808Z,66.26
2018-04-23T08:01:31.956Z,65.79
2018-04-23T08:04:00.101Z,66.53
2018-04-23T08:06:28.300Z,65.54
2018-04-23T08:08:56.390Z,66.11
2018-04-23T08:11:24.541Z,65.81
2018-04-23T08:13:52.644Z,65.40
2018-04-23T08:16:20.796Z,66.38
2018-04-23T08:18:48.927Z,64.60
2018-04-23T08:21:17.048Z,64.41
2018-04-23T08:23:45.195Z,64.40
2018-04-23T08:26:13.326Z,64.57
2018-04-23T08:28:41.466Z,64.29
2018-04-23T08:31:09.614Z,64.34
2018-04-23T08:33:37.764Z,64.46
2018-04-23T08:36:05.913Z,64.00
2018-04-23T08:38:34.113Z,63.25
2018-04-23T08:41:02.230Z,63.81
2018-04-23T08:43:30.350Z,63.08
2018-04-23T08:45:58.965Z,63.00
2018-04-23T08:48:27.099Z,63.37
2018-04-23T08:50:55.240Z,63.45
2018-04-23T08:53:23.396Z,63.69
2018-04-23T08:55:51.668Z,63.51
2018-04-23T08:58:19.684Z,62.73
2018-04-23T09:00:47.827Z,62.07
2018-04-23T09:03:15.941Z,61.73
2018-04-23T09:05:44.147Z,61.52
2018-04-23T09:08:12.281Z,60.97
2018-04-23T09:10:40.416Z,60.78
2018-04-23T09:13:08.557Z,61.63
2018-04-23T09:15:36.715Z,61.27
2018-04-23T09:18:04.834Z,61.54
2018-04-23T09:20:32.948Z,61.43
2018-04-23T09:23:01.141Z,60.71
2018-04-23T09:25:29.290Z,60.19
2018-04-23T09:27:57.572Z,60.21
2018-04-23T09:30:25.706Z,60.29
2018-04-23T09:32:53.830Z,59.62
2018-04-23T09:35:21.952Z,59.10
2018-04-23T09:37:50.112Z,61.64
2018-04-23T09:40:18.258Z,61.19
2018-04-23T09:42:46.368Z,59.26
2018-04-23T09:45:14.516Z,58.80
2018-04-23T09:47:45.791Z,58.46
2018-04-23T09:50:13.937Z,58.96
2018-04-23T09:52:42.084Z,58.33
2018-04-23T09:55:10.206Z,58.31
2018-04-23T09:57:38.358Z,56.96
2018-04-23T10:00:06.493Z,55.94
2018-04-23T10:02:34.656Z,54.78
2018-04-23T10:05:02.781Z,54.99
2018-04-23T10:07:34.173Z,54.23
2018-04-23T10:10:02.294Z,54.61
2018-04-23T10:12:30.437Z,53.42
2018-04-23T10:14:58.584Z,52.42
2018-04-23T10:17:26.731Z,52.89
2018-04-23T10:19:54.868Z,52.78
2018-04-23T10:22:23.013Z,53.25
2018-04-23T10:24:51.142Z,53.34
2018-04-23T10:27:22.245Z,53.38
2018-04-23T10:29:50.398Z,52.28
2018-04-23T10:32:18.537Z,52.18
2018-04-23T10:34:46.676Z,52.58
2018-04-23T10:37:14.800Z,54.54
2018-04-23T10:39:42.942Z,51.75
2018-04-23T10:42:11.088Z,52.57
2018-04-23T10:44:39.216Z,53.62
2018-04-23T10:47:07.332Z,52.57
2018-04-23T10:49:35.467Z,52.22
2018-04-23T10:52:03.649Z,53.01
2018-04-23T10:54:31.755Z,52.01
2018-04-23T10:56:59.867Z,51.93
2018-04-23T10:59:28.010Z,50.75
2018-04-23T11:01:56.176Z,50.80
2018-04-23T11:04:24.285Z,51.56
2018-04-23T11:06:52.430Z,50.99
2018-04-23T11:09:20.541Z,49.36
2018-04-23T11:11:48.671Z,50.28
2018-04-23T11:14:16.803Z,50.16
2018-04-23T11:16:48.373Z,49.82
2018-04-23T11:19:16.517Z,50.32
2018-04-23T11:21:44.653Z,51.44
2018-04-23T11:24:12.782Z,52.24
2018-04-23T11:26:40.997Z,51.69
2018-04-23T11:29:09.125Z,51.11
2018-04-23T11:31:37.323Z,51.35
2018-04-23T11:34:05.523Z,49.77
2018-04-23T11:36:33.677Z,50.24
2018-04-23T11:39:01.809Z,47.86
2018-04-23T11:41:30.005Z,47.09
2018-04-23T11:43:58.149Z,47.50
2018-04-23T11:46:26.291Z,47.37
2018-04-23T11:48:54.418Z,47.46
2018-04-23T11:51:22.554Z,48.21
2018-04-23T11:53:50.784Z,48.20
2018-04-23T11:56:18.946Z,47.59
2018-04-23T11:58:47.068Z,47.04
2018-04-23T12:01:15.216Z,48.53
2018-04-23T12:03:43.349Z,46.70
2018-04-23T12:06:11.494Z,46.80
2018-04-23T12:08:43.161Z,45.99
2018-04-23T12:11:11.281Z,46.46
2018-04-23T12:13:39.427Z,44.78
2018-04-23T12:16:07.594Z,45.12
2018-04-23T12:18:35.685Z,44.09
2018-04-23T12:21:03.826Z,44.56
2018-04-23T12:23:31.980Z,46.84
2018-04-23T12:26:00.106Z,46.85
2018-04-23T12:28:28.301Z,45.43
2018-04-23T12:30:56.443Z,45.84
2018-04-23T12:33:24.558Z,46.41
2018-04-23T12:35:52.720Z,46.55
2018-04-23T12:38:20.847Z,45.18
2018-04-23T12:40:49.009Z,45.60
2018-04-23T12:43:17.264Z,45.20
2018-04-23T12:45:45.399Z,44.45
2018-04-23T12:48:13.545Z,44.06
2018-04-23T12:50:41.667Z,44.20
2018-04-23T12:53:09.796Z,44.70
2018-04-23T12:55:38.074Z,44.85
2018-04-23T12:58:06.233Z,43.08
2018-04-23T13:00:34.345Z,43.95
2018-04-23T13:03:02.493Z,42.70
2018-04-23T13:05:30.696Z,43.24
2018-04-23T13:07:58.892Z,43.80
2018-04-23T13:10:27.031Z,44.10
2018-04-23T13:12:55.183Z,44.24
2018-04-23T13:15:23.801Z,42.78
2018-04-23T13:17:51.937Z,43.10
2018-04-23T13:20:20.077Z,43.57
2018-04-23T13:22:48.203Z,43.76
2018-04-23T13:25:16.343Z,42.86
2018-04-23T13:27:44.513Z,41.98
2018-04-23T13:30:12.648Z,42.23
2018-04-23T13:32:40.759Z,42.56
2018-04-23T13:35:08.923Z,42.41
2018-04-23T13:37:37.055Z,42.89
2018-04-23T13:40:05.190Z,41.79
2018-04-23T13:42:33.417Z,42.25
2018-04-23T13:45:01.492Z,42.45
2018-04-23T13:47:29.627Z,42.31
2018-04-23T13:49:57.768Z,43.27
2018-04-23T13:52:25.889Z,43.23
2018-04-23T13:54:54.040Z,43.85
2018-04-23T13:57:22.172Z,43.79
2018-04-23T13:59:50.312Z,44.31
2018-04-23T14:02:18.465Z,43.36
2018-04-23T14:04:46.584Z,42.17
2018-04-23T14:07:14.729Z,43.10
2018-04-23T14:09:42.879Z,41.55
2018-04-23T14:12:11.026Z,42.68
2018-04-23T14:14:39.176Z,42.10
2018-04-23T14:17:07.370Z,42.11
2018-04-23T14:19:35.547Z,42.27
2018-04-23T14:22:03.692Z,42.04
2018-04-23T14:24:31.828Z,42.58
2018-04-23T14:26:59.993Z,42.49
2018-04-23T14:29:28.126Z,42.14
2018-04-23T14:31:56.280Z,42.44
2018-04-23T14:34:24.449Z,43.22
2018-04-23T14:36:52.579Z,43.23
2018-04-23T14:39:20.731Z,43.71
2018-04-23T14:41:48.882Z,43.81
2018-04-23T14:44:17.176Z,43.62
2018-04-23T14:46:45.309Z,42.04
2018-04-23T14:49:13.446Z,42.85
2018-04-23T14:51:41.590Z,43.05
2018-04-23T14:54:09.713Z,44.15
2018-04-23T14:56:37.860Z,44.28
2018-04-23T14:59:06.000Z,44.48
2018-04-23T15:01:34.136Z,45.06
2018-04-23T15:04:02.281Z,45.50
2018-04-23T15:06:30.410Z,45.01
2018-04-23T15:08:58.568Z,44.67
2018-04-23T15:11:26.712Z,44.70
2018-04-23T15:13:54.860Z,44.44
2018-04-23T15:16:22.997Z,44.44
2018-04-23T15:18:51.151Z,43.87
2018-04-23T15:21:19.297Z,43.55
2018-04-23T15:23:47.451Z,43.26
2018-04-23T15:26:15.572Z,43.08
2018-04-23T15:28:43.713Z,43.38
2018-04-23T15:31:11.858Z,44.02
2018-04-23T15:33:40.119Z,43.49
2018-04-23T15:36:08.282Z,43.13
2018-04-23T15:38:36.418Z,43.49
2018-04-23T15:41:04.584Z,43.36
2018-04-23T15:43:32.735Z,42.71
2018-04-23T15:46:00.866Z,43.38
2018-04-23T15:48:29.038Z,43.86
2018-04-23T15:50:57.191Z,43.53
2018-04-23T15:53:25.319Z,44.14
2018-04-23T15:55:53.632Z,42.23
2018-04-23T15:58:21.788Z,43.10
2018-04-23T16:00:49.916Z,43.28
2018-04-23T16:03:18.080Z,42.59
2018-04-23T16:05:46.211Z,42.96
2018-04-23T16:08:14.348Z,43.30
2018-04-23T16:10:42.477Z,43.57
2018-04-23T16:13:10.655Z,43.96
2018-04-23T16:15:38.870Z,43.59
2018-04-23T16:18:07.078Z,44.06
2018-04-23T16:20:35.221Z,44.36
2018-04-23T16:23:03.371Z,44.32
2018-04-23T16:25:31.540Z,44.01
2018-04-23T16:27:59.647Z,45.09
2018-04-23T16:30:27.816Z,44.75
2018-04-23T16:32:56.264Z,45.38
2018-04-23T16:35:24.408Z,45.56
2018-04-23T16:37:52.577Z,46.22
2018-04-23T16:40:23.659Z,46.55
2018-04-23T16:42:51.817Z,46.16
2018-04-23T16:45:19.944Z,46.37
2018-04-23T16:47:48.110Z,46.04
2018-04-23T16:50:16.287Z,45.91
2018-04-23T16:52:44.437Z,46.15
2018-04-23T16:55:12.580Z,45.97
2018-04-23T16:57:40.724Z,46.69
2018-04-23T17:00:08.858Z,46.29
2018-04-23T17:02:37.034Z,46.35
2018-04-23T17:05:06.074Z,46.72
2018-04-23T17:07:34.236Z,46.86
2018-04-23T17:10:02.396Z,46.87
2018-04-23T17:12:30.532Z,47.69
2018-04-23T17:14:58.667Z,47.83
2018-04-23T17:17:26.814Z,47.09
2018-04-23T17:19:54.967Z,47.75
2018-04-23T17:22:23.141Z,47.21
2018-04-23T17:24:51.293Z,46.74
2018-04-23T17:27:19.626Z,46.66
2018-04-23T17:29:47.754Z,46.87
2018-04-23T17:32:15.906Z,47.41
2018-04-23T17:34:44.044Z,47.89
2018-04-23T17:37:12.187Z,48.10
2018-04-23T17:39:40.315Z,47.97
2018-04-23T17:42:08.441Z,48.36
2018-04-23T17:44:36.582Z,48.97
2018-04-23T17:47:04.742Z,48.67
2018-04-23T17:49:32.895Z,48.95
2018-04-23T17:52:01.177Z,49.46
2018-04-23T17:54:29.352Z,49.33
2018-04-23T17:56:57.495Z,49.51
2018-04-23T17:59:25.645Z,48.99
2018-04-23T18:01:53.785Z,48.50
2018-04-23T18:04:21.982Z,49.80
2018-04-23T18:06:50.090Z,48.95
2018-04-23T18:09:18.420Z,48.92
2018-04-23T18:11:46.577Z,49.27
2018-04-23T18:14:14.715Z,48.98
2018-04-23T18:16:42.860Z,48.59
2018-04-23T18:19:11.021Z,48.40
2018-04-23T18:21:39.133Z,48.01
2018-04-23T18:24:07.282Z,48.54
2018-04-23T18:26:35.419Z,48.41
2018-04-23T18:29:03.542Z,48.10
2018-04-23T18:31:31.694Z,48.28
2018-04-23T18:33:59.857Z,48.96
2018-04-23T18:36:27.972Z,48.33
2018-04-23T18:38:56.133Z,48.33
2018-04-23T18:41:24.253Z,48.63
2018-04-23T18:43:52.396Z,49.28
2018-04-23T18:46:20.722Z,49.02
2018-04-23T18:48:52.623Z,49.28
2018-04-23T18:51:20.797Z,49.91
2018-04-23T18:53:52.492Z,49.41
2018-04-23T18:56:20.619Z,49.02
2018-04-23T18:58:48.748Z,49.08
2018-04-23T19:01:16.944Z,50.07
2018-04-23T19:03:45.019Z,50.16
2018-04-23T19:06:16.453Z,49.59
2018-04-23T19:08:44.625Z,50.05
2018-04-23T19:11:16.050Z,49.70
2018-04-23T19:13:44.246Z,50.10
2018-04-23T19:16:12.400Z,49.82
2018-04-23T19:18:43.707Z,49.46
2018-04-23T19:21:11.892Z,50.53
2018-04-23T19:23:40.136Z,50.05
2018-04-23T19:26:08.269Z,51.07
2018-04-23T19:28:36.398Z,52.55
2018-04-23T19:31:04.543Z,52.02
2018-04-23T19:33:32.663Z,52.32
2018-04-23T19:36:00.906Z,52.77
2018-04-23T19:38:32.124Z,52.48
2018-04-23T19:41:03.192Z,52.26
2018-04-23T19:43:31.356Z,53.60
2018-04-23T19:45:59.595Z,54.90
2018-04-23T19:48:27.633Z,55.74
2018-04-23T19:50:55.748Z,56.67
2018-04-23T19:53:23.888Z,57.11
2018-04-23T19:55:52.015Z,58.26
2018-04-23T19:58:20.126Z,58.35
2018-04-23T20:00:48.270Z,59.23
2018-04-23T20:03:16.397Z,59.62
2018-04-23T20:05:44.513Z,59.15
2018-04-23T20:08:12.641Z,59.15
2018-04-23T20:10:40.781Z,59.51
2018-04-23T20:13:08.918Z,59.35
2018-04-23T20:15:40.598Z,60.10
2018-04-23T20:18:08.721Z,60.39
2018-04-23T20:20:40.761Z,61.08
2018-04-23T20:23:09.037Z,60.54
2018-04-23T20:25:37.081Z,60.82
2018-04-23T20:28:05.213Z,61.32
2018-04-23T20:30:33.383Z,61.99
2018-04-23T20:33:01.503Z,61.91
2018-04-23T20:35:29.630Z,62.26
2018-04-23T20:37:57.779Z,62.30
2018-04-23T20:40:26.131Z,62.99
2018-04-23T20:42:54.275Z,62.62
2018-04-23T20:45:22.428Z,63.17
2018-04-23T20:47:50.550Z,64.11
2018-04-23T20:50:18.670Z,64.09
2018-04-23T20:52:46.827Z,63.00
2018-04-23T20:55:14.965Z,64.40
2018-04-23T20:57:43.094Z,64.50
2018-04-23T21:00:11.230Z,64.41
2018-04-23T21:02:39.375Z,64.82
2018-04-23T21:05:07.580Z,64.25
2018-04-23T21:07:35.718Z,64.51
2018-04-23T21:10:03.850Z,64.55
2018-04-23T21:12:31.998Z,64.98
2018-04-23T21:15:00.132Z,64.71
2018-04-23T21:17:28.254Z,65.16
2018-04-23T21:19:56.409Z,64.89
2018-04-23T21:22:24.590Z,65.24
2018-04-23T21:24:52.766Z,65.35
2018-04-23T21:27:20.890Z,65.66
2018-04-23T21:29:49.067Z,65.43
2018-04-23T21:32:17.184Z,66.13
2018-04-23T21:34:45.300Z,66.39
2018-04-23T21:37:16.877Z,66.97
2018-04-23T21:39:45.003Z,66.55
2018-04-23T21:42:13.223Z,66.03
2018-04-23T21:44:41.362Z,67.37
2018-04-23T21:47:09.492Z,67.56
2018-04-23T21:49:37.622Z,67.07
2018-04-23T21:52:05.902Z,66.92
2018-04-23T21:54:34.032Z,68.24
2018-04-23T21:57:02.219Z,68.28
2018-04-23T21:59:30.354Z,68.27
2018-04-23T22:01:58.524Z,68.07
2018-04-23T22:04:26.633Z,67.92
2018-04-23T22:06:54.788Z,68.20
2018-04-23T22:09:22.963Z,68.16
2018-04-23T22:11:51.050Z,68.64
2018-04-23T22:14:19.190Z,68.73
2018-04-23T22:16:47.339Z,68.13
2018-04-23T22:19:15.481Z,67.88
2018-04-23T22:21:43.612Z,68.26
2018-04-23T22:24:11.725Z,68.85
2018-04-23T22:26:39.845Z,68.81
2018-04-23T22:29:07.988Z,68.86
2018-04-23T22:31:36.151Z,69.36
2018-04-23T22:34:04.274Z,69.33
2018-04-23T22:36:32.411Z,69.85
2018-04-23T22:39:00.540Z,70.36
2018-04-23T22:41:28.662Z,70.79
2018-04-23T22:43:56.832Z,69.88
2018-04-23T22:46:25.035Z,70.55
2018-04-23T22:48:53.165Z,71.31
2018-04-23T22:51:21.422Z,71.87
2018-04-23T22:53:53.109Z,71.24
2018-04-23T22:56:21.300Z,71.79
2018-04-23T22:58:49.429Z,71.30
2018-04-23T23:01:17.572Z,71.81
2018-04-23T23:03:45.684Z,72.03
2018-04-23T23:06:13.846Z,72.60
2018-04-23T23:08:41.971Z,72.58
2018-04-23T23:11:10.175Z,71.90
2018-04-23T23:13:38.244Z,71.80
2018-04-23T23:16:06.380Z,70.84
2018-04-23T23:18:34.518Z,68.78
2018-04-23T23:21:02.659Z,66.81
2018-04-23T23:23:30.796Z,65.85
2018-04-23T23:25:58.943Z,64.49
2018-04-23T23:28:27.079Z,63.76
2018-04-23T23:30:58.465Z,63.69
2018-04-23T23:33:26.665Z,62.97
2018-04-23T23:35:55.837Z,63.46
2018-04-23T23:38:24.062Z,64.29
2018-04-23T23:40:52.173Z,64.34
2018-04-23T23:43:20.561Z,64.10
2018-04-23T23:45:48.673Z,64.23
2018-04-23T23:48:16.808Z,63.80
2018-04-23T23:50:44.943Z,64.30
2018-04-23T23:53:13.048Z,64.57
2018-04-23T23:55:41.163Z,64.67
2018-04-23T23:58:09.331Z,64.31
